Time,TemperatureF,DewpointF,PressureIn,WindDirection,WindDirectionDegrees,WindSpeedMPH,WindSpeedGustMPH,Humidity,HourlyPrecipIn,Conditions,Clouds,dailyrainin,SolarRadiationWatts/m^2,SoftwareType,DateUTC
2013-07-29 00:18:00,74.1,72.6,29.97,North,10,0.0,0.0,95,0.00,,,0.00,0,Wunderground v.1.15,2013-07-29 05:18:00,
2013-07-29 00:37:00,73.9,72.1,29.97,North,10,0.0,0.0,94,0.00,,,0.00,0,Wunderground v.1.15,2013-07-29 05:37:00,
2013-07-29 00:50:00,73.8,72.3,29.97,North,10,0.0,0.0,95,0.00,,,0.00,0,Wunderground v.1.15,2013-07-29 05:50:00,
2013-07-29 01:10:00,73.9,72.4,29.97,North,10,0.0,0.0,95,0.00,,,0.00,0,Wunderground v.1.15,2013-07-29 06:10:00,
2013-07-29 01:43:00,73.4,71.9,29.97,North,10,0.0,0.0,95,0.00,,,0.00,0,Wunderground v.1.15,2013-07-29 06:43:00,
2013-07-29 01:48:00,73.4,71.9,29.98,North,10,0.0,0.0,95,0.00,,,0.00,0,Wunderground v.1.15,2013-07-29 06:48:00,
2013-07-29 01:54:00,73.3,72.1,29.98,North,10,0.0,0.0,96,0.00,,,0.00,0,Wunderground v.1.15,2013-07-29 06:54:00,
2013-07-29 02:00:00,73.2,72.0,29.98,North,10,0.0,0.0,96,0.00,,,0.00,0,Wunderground v.1.15,2013-07-29 07:00:00,
2013-07-29 02:06:00,73.1,71.9,29.98,North,10,0.0,0.0,96,0.00,,,0.00,0,Wunderground v.1.15,2013-07-29 07:06:00,
2013-07-29 02:11:00,73.1,71.9,29.98,North,10,0.0,0.0,96,0.00,,,0.00,0,Wunderground v.1.15,2013-07-29 07:11:00,
2013-07-29 02:17:00,73.1,71.9,29.98,North,10,0.0,0.0,96,0.00,,,0.00,0,Wunderground v.1.15,2013-07-29 07:17:00,
2013-07-29 02:22:00,73.0,71.8,29.98,North,10,0.0,0.0,96,0.00,,,0.00,0,Wunderground v.1.15,2013-07-29 07:22:00,
2013-07-29 02:27:00,73.0,71.8,29.97,North,10,0.0,0.0,96,0.00,,,0.00,0,Wunderground v.1.15,2013-07-29 07:27:00,
2013-07-29 02:33:00,72.9,71.7,29.97,North,10,0.0,0.0,96,0.00,,,0.00,0,Wunderground v.1.15,2013-07-29 07:33:00,
2013-07-29 02:38:00,72.9,71.7,29.97,North,10,0.0,0.0,96,0.00,,,0.00,0,Wunderground v.1.15,2013-07-29 07:38:00,
2013-07-29 02:43:00,72.9,72.0,29.97,North,10,0.0,0.0,97,0.00,,,0.00,0,Wunderground v.1.15,2013-07-29 07:43:00,
2013-07-29 02:48:00,72.8,71.9,29.97,North,10,0.0,0.0,97,0.00,,,0.00,0,Wunderground v.1.15,2013-07-29 07:48:00,
2013-07-29 02:54:00,72.8,71.9,29.97,North,10,0.0,0.0,97,0.00,,,0.00,0,Wunderground v.1.15,2013-07-29 07:54:00,
2013-07-29 02:59:00,72.7,71.8,29.97,North,10,0.0,0.0,97,0.00,,,0.00,0,Wunderground v.1.15,2013-07-29 07:59:00,
2013-07-29 03:04:00,72.8,71.9,29.97,North,10,0.0,0.0,97,0.00,,,0.00,0,Wunderground v.1.15,2013-07-29 08:04:00,
2013-07-29 03:09:00,72.8,71.9,29.97,North,10,0.0,0.0,97,0.00,,,0.00,0,Wunderground v.1.15,2013-07-29 08:09:00,
2013-07-29 03:15:00,72.9,72.0,29.97,North,10,0.0,0.0,97,0.00,,,0.00,0,Wunderground v.1.15,2013-07-29 08:15:00,
2013-07-29 03:21:00,73.0,72.1,29.97,North,10,0.0,0.0,97,0.00,,,0.00,0,Wunderground v.1.15,2013-07-29 08:21:00,
2013-07-29 03:26:00,73.0,72.1,29.97,North,10,0.0,0.0,97,0.00,,,0.00,0,Wunderground v.1.15,2013-07-29 08:26:00,
2013-07-29 03:51:00,72.9,72.0,29.97,North,10,0.0,0.0,97,0.00,,,0.00,0,Wunderground v.1.15,2013-07-29 08:51:00,
2013-07-29 04:12:00,73.4,72.5,29.98,North,10,0.0,0.0,97,0.00,,,0.00,0,Wunderground v.1.15,2013-07-29 09:12:00,
2013-07-29 04:17:00,73.5,72.6,29.98,North,10,0.0,0.0,97,0.00,,,0.00,0,Wunderground v.1.15,2013-07-29 09:17:00,
2013-07-29 04:22:00,73.6,72.7,29.98,North,10,0.0,0.0,97,0.00,,,0.00,0,Wunderground v.1.15,2013-07-29 09:22:00,
2013-07-29 04:28:00,73.6,72.7,29.99,North,10,0.0,0.0,97,0.00,,,0.00,0,Wunderground v.1.15,2013-07-29 09:28:00,
2013-07-29 04:33:00,73.6,72.7,29.98,North,10,0.0,0.0,97,0.00,,,0.00,0,Wunderground v.1.15,2013-07-29 09:33:00,
2013-07-29 04:38:00,73.6,72.7,29.99,North,10,0.0,1.0,97,0.00,,,0.00,0,Wunderground v.1.15,2013-07-29 09:38:00,
2013-07-29 04:43:00,73.6,72.7,29.99,North,10,0.0,0.0,97,0.00,,,0.00,0,Wunderground v.1.15,2013-07-29 09:43:00,
2013-07-29 04:49:00,73.6,72.7,29.99,NNE,20,0.0,0.0,97,0.00,,,0.00,0,Wunderground v.1.15,2013-07-29 09:49:00,
2013-07-29 04:54:00,73.6,72.7,29.99,NNE,20,0.0,0.0,97,0.00,,,0.00,0,Wunderground v.1.15,2013-07-29 09:54:00,
2013-07-29 04:59:00,73.6,72.7,29.99,NNE,20,0.0,1.0,97,0.00,,,0.00,0,Wunderground v.1.15,2013-07-29 09:59:00,
2013-07-29 05:05:00,73.6,72.7,29.99,NNE,19,0.0,0.0,97,0.00,,,0.00,0,Wunderground v.1.15,2013-07-29 10:05:00,
2013-07-29 05:10:00,73.7,72.8,29.99,NNE,19,0.0,1.0,97,0.00,,,0.00,0,Wunderground v.1.15,2013-07-29 10:10:00,
2013-07-29 05:16:00,73.7,72.8,29.99,NNE,19,0.0,0.0,97,0.00,,,0.00,0,Wunderground v.1.15,2013-07-29 10:16:00,
2013-07-29 05:21:00,73.7,72.8,29.99,NNE,19,0.0,0.0,97,0.00,,,0.00,0,Wunderground v.1.15,2013-07-29 10:21:00,
2013-07-29 05:26:00,73.7,72.8,30.00,NNE,19,0.0,0.0,97,0.00,,,0.00,0,Wunderground v.1.15,2013-07-29 10:26:00,
2013-07-29 05:57:00,73.9,73.0,30.01,NNE,19,0.0,0.0,97,0.00,,,0.00,0,Wunderground v.1.15,2013-07-29 10:57:00,
2013-07-29 06:04:00,74.0,73.1,30.01,NNE,19,0.0,0.0,97,0.00,,,0.00,0,Wunderground v.1.15,2013-07-29 11:04:00,
2013-07-29 06:20:00,74.1,73.2,30.02,NNE,19,0.0,0.0,97,0.00,,,0.00,0,Wunderground v.1.15,2013-07-29 11:20:00,
2013-07-29 06:40:00,74.3,73.4,30.02,NNE,19,0.0,0.0,97,0.00,,,0.00,33,Wunderground v.1.15,2013-07-29 11:40:00,
2013-07-29 06:46:00,74.3,73.4,30.02,NNE,19,0.0,0.0,97,0.00,,,0.00,37,Wunderground v.1.15,2013-07-29 11:46:00,
2013-07-29 06:52:00,74.4,73.5,30.03,NNE,19,0.0,0.0,97,0.00,,,0.00,39,Wunderground v.1.15,2013-07-29 11:52:00,
2013-07-29 06:57:00,74.5,73.6,30.03,NNE,19,0.0,0.0,97,0.00,,,0.00,42,Wunderground v.1.15,2013-07-29 11:57:00,
2013-07-29 07:04:00,74.6,73.7,30.04,NNE,19,0.0,0.0,97,0.00,,,0.00,53,Wunderground v.1.15,2013-07-29 12:04:00,
2013-07-29 07:09:00,74.7,73.8,30.04,NNE,19,0.0,0.0,97,0.00,,,0.00,67,Wunderground v.1.15,2013-07-29 12:09:00,
2013-07-29 07:15:00,74.8,73.9,30.04,NNE,19,0.0,0.0,97,0.00,,,0.00,63,Wunderground v.1.15,2013-07-29 12:15:00,
2013-07-29 07:41:00,75.9,74.4,30.05,NNE,21,0.0,0.0,95,0.00,,,0.00,174,Wunderground v.1.15,2013-07-29 12:41:00,
2013-07-29 07:52:00,76.8,74.6,30.05,NNE,21,0.0,0.0,93,0.00,,,0.00,209,Wunderground v.1.15,2013-07-29 12:52:00,
2013-07-29 07:57:00,77.1,74.6,30.05,NNE,21,0.0,0.0,92,0.00,,,0.00,232,Wunderground v.1.15,2013-07-29 12:57:00,
2013-07-29 08:13:00,78.5,75.3,30.05,NNE,24,0.0,0.0,90,0.00,,,0.00,278,Wunderground v.1.15,2013-07-29 13:13:00,
2013-07-29 08:18:00,78.8,75.3,30.05,NNE,24,0.0,0.0,89,0.00,,,0.00,301,Wunderground v.1.15,2013-07-29 13:18:00,
2013-07-29 08:23:00,79.4,75.2,30.05,NNE,29,0.0,3.0,87,0.00,,,0.00,315,Wunderground v.1.15,2013-07-29 13:23:00,
2013-07-29 08:48:00,81.1,75.1,30.06,East,84,0.0,3.0,82,0.00,,,0.00,410,Wunderground v.1.15,2013-07-29 13:48:00,
2013-07-29 08:55:00,81.4,75.0,30.06,East,101,0.0,1.0,81,0.00,,,0.00,434,Wunderground v.1.15,2013-07-29 13:55:00,
2013-07-29 09:08:00,81.9,75.5,30.06,East,101,0.0,2.0,81,0.00,,,0.00,473,Wunderground v.1.15,2013-07-29 14:08:00,
2013-07-29 09:13:00,82.0,75.2,30.06,East,98,0.0,2.0,80,0.00,,,0.00,494,Wunderground v.1.15,2013-07-29 14:13:00,
2013-07-29 09:18:00,82.1,74.9,30.06,East,98,0.0,3.0,79,0.00,,,0.00,512,Wunderground v.1.15,2013-07-29 14:18:00,
2013-07-29 09:24:00,82.3,75.1,30.06,East,98,0.0,0.0,79,0.00,,,0.00,529,Wunderground v.1.15,2013-07-29 14:24:00,
2013-07-29 09:29:00,82.7,75.5,30.07,East,98,0.0,0.0,79,0.00,,,0.00,522,Wunderground v.1.15,2013-07-29 14:29:00,
2013-07-29 09:34:00,83.0,75.4,30.07,East,98,0.0,0.0,78,0.00,,,0.00,559,Wunderground v.1.15,2013-07-29 14:34:00,
2013-07-29 09:39:00,83.1,75.1,30.07,East,98,0.0,0.0,77,0.00,,,0.00,577,Wunderground v.1.15,2013-07-29 14:39:00,
2013-07-29 09:46:00,83.4,75.0,30.07,East,92,0.0,6.0,76,0.00,,,0.00,594,Wunderground v.1.15,2013-07-29 14:46:00,
2013-07-29 09:52:00,83.5,75.1,30.07,SE,127,1.0,1.0,76,0.00,,,0.00,621,Wunderground v.1.15,2013-07-29 14:52:00,
2013-07-29 09:57:00,83.8,75.0,30.07,ESE,121,0.0,1.0,75,0.00,,,0.00,626,Wunderground v.1.15,2013-07-29 14:57:00,
2013-07-29 10:03:00,83.8,75.0,30.07,ESE,121,0.0,0.0,75,0.00,,,0.00,649,Wunderground v.1.15,2013-07-29 15:03:00,
2013-07-29 10:09:00,83.7,74.9,30.07,NE,42,0.0,3.0,75,0.00,,,0.00,686,Wunderground v.1.15,2013-07-29 15:09:00,
2013-07-29 10:15:00,83.9,75.1,30.07,NNE,28,1.0,3.0,75,0.00,,,0.00,638,Wunderground v.1.15,2013-07-29 15:15:00,
2013-07-29 10:22:00,84.2,75.8,30.07,ENE,61,0.0,0.0,76,0.00,,,0.00,701,Wunderground v.1.15,2013-07-29 15:22:00,
2013-07-29 10:27:00,84.4,75.6,30.07,SE,131,0.0,1.0,75,0.00,,,0.00,747,Wunderground v.1.15,2013-07-29 15:27:00,
2013-07-29 10:32:00,84.8,76.0,30.07,ESE,118,0.0,0.0,75,0.00,,,0.00,738,Wunderground v.1.15,2013-07-29 15:32:00,
2013-07-29 10:37:00,84.9,75.3,30.07,SE,145,0.0,0.0,73,0.00,,,0.00,749,Wunderground v.1.15,2013-07-29 15:37:00,
2013-07-29 10:42:00,84.8,75.6,30.07,SE,140,0.0,0.0,74,0.00,,,0.00,786,Wunderground v.1.15,2013-07-29 15:42:00,
2013-07-29 10:48:00,85.0,75.8,30.07,SE,140,0.0,0.0,74,0.00,,,0.00,846,Wunderground v.1.15,2013-07-29 15:48:00,
2013-07-29 10:54:00,85.1,74.6,30.07,ESE,114,0.0,3.0,71,0.00,,,0.00,846,Wunderground v.1.15,2013-07-29 15:54:00,
2013-07-29 10:59:00,85.3,75.2,30.07,ESE,114,0.0,3.0,72,0.00,,,0.00,870,Wunderground v.1.15,2013-07-29 15:59:00,
2013-07-29 11:04:00,85.2,74.7,30.07,ESE,113,0.0,4.0,71,0.00,,,0.00,202,Wunderground v.1.15,2013-07-29 16:04:00,
2013-07-29 11:11:00,84.8,75.6,30.07,ESE,112,0.0,0.0,74,0.00,,,0.00,926,Wunderground v.1.15,2013-07-29 16:11:00,
2013-07-29 11:19:00,85.5,75.0,30.06,East,100,0.0,4.0,71,0.00,,,0.00,937,Wunderground v.1.15,2013-07-29 16:19:00,
2013-07-29 11:24:00,85.8,74.9,30.07,East,100,0.0,0.0,70,0.00,,,0.00,944,Wunderground v.1.15,2013-07-29 16:24:00,
2013-07-29 11:30:00,86.3,75.4,30.06,ENE,59,0.0,3.0,70,0.00,,,0.00,970,Wunderground v.1.15,2013-07-29 16:30:00,
2013-07-29 11:37:00,86.4,75.0,30.06,NE,48,0.0,3.0,69,0.00,,,0.00,1007,Wunderground v.1.15,2013-07-29 16:37:00,
2013-07-29 11:42:00,86.5,75.1,30.06,SE,142,0.0,0.0,69,0.00,,,0.00,1020,Wunderground v.1.15,2013-07-29 16:42:00,
2013-07-29 11:47:00,86.6,74.8,30.06,SE,136,0.0,1.0,68,0.00,,,0.00,1020,Wunderground v.1.15,2013-07-29 16:47:00,
2013-07-29 11:52:00,86.1,74.3,30.06,SE,134,0.0,0.0,68,0.00,,,0.00,188,Wunderground v.1.15,2013-07-29 16:52:00,
2013-07-29 11:57:00,85.8,75.3,30.06,SE,133,0.0,0.0,71,0.00,,,0.00,366,Wunderground v.1.15,2013-07-29 16:57:00,
2013-07-29 12:03:00,85.6,73.8,30.06,SE,134,0.0,0.0,68,0.00,,,0.00,304,Wunderground v.1.15,2013-07-29 17:03:00,
2013-07-29 12:08:00,85.8,75.7,30.06,SE,133,0.0,0.0,72,0.00,,,0.00,1062,Wunderground v.1.15,2013-07-29 17:08:00,
2013-07-29 12:13:00,86.4,75.9,30.06,SE,133,0.0,0.0,71,0.00,,,0.00,315,Wunderground v.1.15,2013-07-29 17:13:00,
2013-07-29 12:18:00,86.6,75.6,30.06,SE,131,0.0,0.0,70,0.00,,,0.00,239,Wunderground v.1.15,2013-07-29 17:18:00,
2013-07-29 12:24:00,86.2,75.3,30.06,SE,131,0.0,0.0,70,0.00,,,0.00,279,Wunderground v.1.15,2013-07-29 17:24:00,
2013-07-29 12:29:00,86.0,74.2,30.06,SE,131,0.0,0.0,68,0.00,,,0.00,780,Wunderground v.1.15,2013-07-29 17:29:00,
2013-07-29 12:34:00,86.2,74.8,30.06,SE,131,0.0,1.0,69,0.00,,,0.00,220,Wunderground v.1.15,2013-07-29 17:34:00,
2013-07-29 12:40:00,86.1,75.2,30.06,SE,131,0.0,1.0,70,0.00,,,0.00,207,Wunderground v.1.15,2013-07-29 17:40:00,
2013-07-29 12:46:00,85.8,75.3,30.06,SE,131,0.0,0.0,71,0.00,,,0.00,229,Wunderground v.1.15,2013-07-29 17:46:00,
2013-07-29 12:52:00,85.6,74.7,30.05,SE,131,0.0,0.0,70,0.00,,,0.00,153,Wunderground v.1.15,2013-07-29 17:52:00,
2013-07-29 12:57:00,85.7,75.2,30.05,SE,131,0.0,0.0,71,0.00,,,0.00,958,Wunderground v.1.15,2013-07-29 17:57:00,
2013-07-29 13:03:00,86.4,76.7,30.05,SE,131,0.0,0.0,73,0.00,,,0.00,803,Wunderground v.1.15,2013-07-29 18:03:00,
2013-07-29 13:08:00,87.1,73.9,30.05,SE,131,0.0,0.0,65,0.00,,,0.00,870,Wunderground v.1.15,2013-07-29 18:08:00,
2013-07-29 13:13:00,87.5,74.7,30.05,SE,131,0.0,0.0,66,0.00,,,0.00,983,Wunderground v.1.15,2013-07-29 18:13:00,
2013-07-29 13:19:00,87.9,74.2,30.04,SE,131,0.0,0.0,64,0.00,,,0.00,990,Wunderground v.1.15,2013-07-29 18:19:00,
2013-07-29 13:26:00,88.3,75.0,30.04,SE,131,0.0,0.0,65,0.00,,,0.00,967,Wunderground v.1.15,2013-07-29 18:26:00,
2013-07-29 13:33:00,88.4,74.7,30.04,SE,131,0.0,0.0,64,0.00,,,0.00,976,Wunderground v.1.15,2013-07-29 18:33:00,
2013-07-29 13:39:00,88.7,74.5,30.04,SE,131,0.0,0.0,63,0.00,,,0.00,979,Wunderground v.1.15,2013-07-29 18:39:00,
2013-07-29 13:45:00,88.9,74.7,30.04,SE,146,0.0,0.0,63,0.00,,,0.00,752,Wunderground v.1.15,2013-07-29 18:45:00,
2013-07-29 13:51:00,89.2,75.0,30.04,SSE,149,0.0,0.0,63,0.00,,,0.00,958,Wunderground v.1.15,2013-07-29 18:51:00,
2013-07-29 13:58:00,89.0,73.8,30.04,SE,144,0.0,3.0,61,0.00,,,0.00,1021,Wunderground v.1.15,2013-07-29 18:58:00,
2013-07-29 14:03:00,89.0,74.8,30.03,East,91,1.0,1.0,63,0.00,,,0.00,1035,Wunderground v.1.15,2013-07-29 19:03:00,
2013-07-29 14:09:00,89.1,74.9,30.03,East,85,1.0,3.0,63,0.00,,,0.00,986,Wunderground v.1.15,2013-07-29 19:09:00,
2013-07-29 14:15:00,89.4,74.2,30.03,East,84,1.0,4.0,61,0.00,,,0.00,318,Wunderground v.1.15,2013-07-29 19:15:00,
2013-07-29 14:20:00,89.3,74.1,30.03,East,84,1.0,4.0,61,0.00,,,0.00,250,Wunderground v.1.15,2013-07-29 19:20:00,
2013-07-29 14:25:00,89.2,74.5,30.03,East,84,0.0,1.0,62,0.00,,,0.00,849,Wunderground v.1.15,2013-07-29 19:25:00,
2013-07-29 14:31:00,89.3,74.6,30.03,East,85,0.0,1.0,62,0.00,,,0.00,951,Wunderground v.1.15,2013-07-29 19:31:00,
2013-07-29 14:37:00,89.3,74.6,30.04,East,86,0.0,1.0,62,0.00,,,0.00,909,Wunderground v.1.15,2013-07-29 19:37:00,
2013-07-29 14:42:00,89.6,75.8,30.03,East,86,0.0,0.0,64,0.00,,,0.00,933,Wunderground v.1.15,2013-07-29 19:42:00,
2013-07-29 14:48:00,89.8,74.6,30.03,East,86,0.0,0.0,61,0.00,,,0.00,900,Wunderground v.1.15,2013-07-29 19:48:00,
2013-07-29 14:54:00,90.2,74.4,30.03,East,86,0.0,2.0,60,0.00,,,0.00,823,Wunderground v.1.15,2013-07-29 19:54:00,
2013-07-29 15:00:00,90.1,74.8,30.03,East,86,0.0,2.0,61,0.00,,,0.00,902,Wunderground v.1.15,2013-07-29 20:00:00,
2013-07-29 15:06:00,90.2,74.4,30.02,East,86,0.0,2.0,60,0.00,,,0.00,846,Wunderground v.1.15,2013-07-29 20:06:00,
2013-07-29 15:12:00,90.4,74.6,30.02,East,87,0.0,0.0,60,0.00,,,0.00,816,Wunderground v.1.15,2013-07-29 20:12:00,
2013-07-29 15:19:00,90.3,74.0,30.02,East,84,0.0,1.0,59,0.00,,,0.00,835,Wunderground v.1.15,2013-07-29 20:19:00,
2013-07-29 15:24:00,90.2,75.9,30.02,East,88,1.0,3.0,63,0.00,,,0.00,733,Wunderground v.1.15,2013-07-29 20:24:00,
2013-07-29 15:29:00,90.2,74.4,30.02,South,184,1.0,3.0,60,0.00,,,0.00,584,Wunderground v.1.15,2013-07-29 20:29:00,
2013-07-29 15:34:00,90.2,73.4,30.02,SE,133,0.0,3.0,58,0.00,,,0.00,844,Wunderground v.1.15,2013-07-29 20:34:00,
2013-07-29 15:40:00,90.7,73.9,30.02,SE,133,0.0,3.0,58,0.00,,,0.00,821,Wunderground v.1.15,2013-07-29 20:40:00,
2013-07-29 15:46:00,91.1,74.3,30.02,SE,133,0.0,0.0,58,0.00,,,0.00,802,Wunderground v.1.15,2013-07-29 20:46:00,
2013-07-29 15:51:00,91.0,75.2,30.02,SE,131,0.0,0.0,60,0.00,,,0.00,735,Wunderground v.1.15,2013-07-29 20:51:00,
2013-07-29 15:57:00,90.6,75.3,30.02,NNE,15,0.0,0.0,61,0.00,,,0.00,763,Wunderground v.1.15,2013-07-29 20:57:00,
2013-07-29 16:02:00,90.8,75.5,30.02,ENE,68,1.0,3.0,61,0.00,,,0.00,747,Wunderground v.1.15,2013-07-29 21:02:00,
2013-07-29 16:07:00,90.5,75.2,30.02,ESE,104,1.0,3.0,61,0.00,,,0.00,223,Wunderground v.1.15,2013-07-29 21:07:00,
2013-07-29 16:12:00,90.0,75.7,30.02,ESE,104,0.0,0.0,63,0.00,,,0.00,677,Wunderground v.1.15,2013-07-29 21:12:00,
2013-07-29 16:17:00,89.8,74.6,30.02,ESE,104,0.0,0.0,61,0.00,,,0.00,137,Wunderground v.1.15,2013-07-29 21:17:00,
2013-07-29 16:23:00,90.4,74.1,30.02,ESE,104,0.0,5.0,59,0.00,,,0.00,682,Wunderground v.1.15,2013-07-29 21:23:00,
2013-07-29 16:29:00,90.9,76.1,30.02,ESE,104,0.0,5.0,62,0.00,,,0.00,682,Wunderground v.1.15,2013-07-29 21:29:00,
2013-07-29 16:34:00,91.1,75.8,30.02,ESE,123,0.0,1.0,61,0.00,,,0.00,657,Wunderground v.1.15,2013-07-29 21:34:00,
2013-07-29 16:39:00,91.0,75.2,30.02,East,85,0.0,1.0,60,0.00,,,0.00,624,Wunderground v.1.15,2013-07-29 21:39:00,
2013-07-29 16:45:00,90.7,75.9,30.02,East,85,0.0,0.0,62,0.00,,,0.00,584,Wunderground v.1.15,2013-07-29 21:45:00,
2013-07-29 16:50:00,90.6,76.3,30.02,East,85,0.0,0.0,63,0.00,,,0.00,570,Wunderground v.1.15,2013-07-29 21:50:00,
2013-07-29 16:56:00,90.7,75.4,30.02,East,85,0.0,1.0,61,0.00,,,0.00,548,Wunderground v.1.15,2013-07-29 21:56:00,
2013-07-29 17:02:00,90.6,73.8,30.02,East,85,0.0,0.0,58,0.00,,,0.00,531,Wunderground v.1.15,2013-07-29 22:02:00,
2013-07-29 17:07:00,90.8,75.5,30.02,East,85,0.0,0.0,61,0.00,,,0.00,513,Wunderground v.1.15,2013-07-29 22:07:00,
2013-07-29 17:13:00,91.1,75.8,30.02,East,85,0.0,0.0,61,0.00,,,0.00,492,Wunderground v.1.15,2013-07-29 22:13:00,
2013-07-29 17:19:00,91.0,75.2,30.02,East,84,0.0,1.0,60,0.00,,,0.00,485,Wunderground v.1.15,2013-07-29 22:19:00,
2013-07-29 17:24:00,90.9,78.0,30.02,East,84,0.0,0.0,66,0.00,,,0.00,455,Wunderground v.1.15,2013-07-29 22:24:00,
2013-07-29 17:29:00,90.8,75.0,30.02,East,81,0.0,1.0,60,0.00,,,0.00,429,Wunderground v.1.15,2013-07-29 22:29:00,
2013-07-29 17:35:00,90.5,75.7,30.02,East,81,0.0,0.0,62,0.00,,,0.00,424,Wunderground v.1.15,2013-07-29 22:35:00,
2013-07-29 17:40:00,90.3,74.0,30.02,SE,127,0.0,0.0,59,0.00,,,0.00,406,Wunderground v.1.15,2013-07-29 22:40:00,
2013-07-29 17:46:00,90.2,75.4,30.02,ESE,121,0.0,0.0,62,0.00,,,0.00,385,Wunderground v.1.15,2013-07-29 22:46:00,
2013-07-29 17:51:00,90.0,74.7,30.02,ESE,121,0.0,0.0,61,0.00,,,0.00,362,Wunderground v.1.15,2013-07-29 22:51:00,
2013-07-29 17:57:00,89.7,74.9,30.02,ESE,122,0.0,0.0,62,0.00,,,0.00,339,Wunderground v.1.15,2013-07-29 22:57:00,
2013-07-29 18:03:00,89.5,73.3,30.01,ESE,123,0.0,0.0,59,0.00,,,0.00,315,Wunderground v.1.15,2013-07-29 23:03:00,
2013-07-29 18:09:00,89.5,75.7,30.01,ESE,123,0.0,0.0,64,0.00,,,0.00,225,Wunderground v.1.15,2013-07-29 23:09:00,
2013-07-29 18:14:00,89.3,74.1,30.01,ESE,123,0.0,0.0,61,0.00,,,0.00,155,Wunderground v.1.15,2013-07-29 23:14:00,
2013-07-29 18:19:00,89.1,74.4,30.01,ESE,123,0.0,0.0,62,0.00,,,0.00,169,Wunderground v.1.15,2013-07-29 23:19:00,
2013-07-29 18:24:00,89.0,74.8,30.01,ESE,123,0.0,0.0,63,0.00,,,0.00,97,Wunderground v.1.15,2013-07-29 23:24:00,
2013-07-29 18:34:00,88.8,76.0,30.02,ESE,119,0.0,0.0,66,0.00,,,0.00,179,Wunderground v.1.15,2013-07-29 23:34:00,
2013-07-29 18:42:00,89.0,75.7,30.02,ESE,123,0.0,0.0,65,0.00,,,0.00,190,Wunderground v.1.15,2013-07-29 23:42:00,
2013-07-29 18:48:00,89.5,76.2,30.02,ESE,123,0.0,0.0,65,0.00,,,0.00,167,Wunderground v.1.15,2013-07-29 23:48:00,
2013-07-29 18:54:00,89.7,76.8,30.02,ESE,123,0.0,0.0,66,0.00,,,0.00,74,Wunderground v.1.15,2013-07-29 23:54:00,
2013-07-29 18:59:00,89.5,77.1,30.02,ESE,123,0.0,0.0,67,0.00,,,0.00,121,Wunderground v.1.15,2013-07-29 23:59:00,
2013-07-29 19:04:00,89.2,76.8,30.03,ESE,123,0.0,0.0,67,0.00,,,0.00,79,Wunderground v.1.15,2013-07-30 00:04:00,
2013-07-29 19:10:00,88.7,77.2,30.02,ESE,123,0.0,0.0,69,0.00,,,0.00,60,Wunderground v.1.15,2013-07-30 00:10:00,
2013-07-29 19:15:00,88.3,76.8,30.02,ESE,123,0.0,0.0,69,0.00,,,0.00,49,Wunderground v.1.15,2013-07-30 00:15:00,
2013-07-29 19:20:00,87.9,76.9,30.02,ESE,123,0.0,0.0,70,0.00,,,0.00,56,Wunderground v.1.15,2013-07-30 00:20:00,
2013-07-29 19:25:00,87.6,77.0,30.02,ESE,123,0.0,0.0,71,0.00,,,0.00,37,Wunderground v.1.15,2013-07-30 00:25:00,
2013-07-29 19:30:00,87.4,77.3,30.02,ESE,123,0.0,0.0,72,0.00,,,0.00,33,Wunderground v.1.15,2013-07-30 00:30:00,
2013-07-29 19:35:00,87.1,77.0,30.02,ESE,123,0.0,0.0,72,0.00,,,0.00,26,Wunderground v.1.15,2013-07-30 00:35:00,
2013-07-29 19:41:00,86.7,76.6,30.02,ESE,123,0.0,0.0,72,0.00,,,0.00,18,Wunderground v.1.15,2013-07-30 00:41:00,
2013-07-29 19:46:00,86.3,76.6,30.02,ESE,123,0.0,0.0,73,0.00,,,0.00,12,Wunderground v.1.15,2013-07-30 00:46:00,
2013-07-29 19:51:00,85.8,76.5,30.02,ESE,123,0.0,0.0,74,0.00,,,0.00,9,Wunderground v.1.15,2013-07-30 00:51:00,
2013-07-29 19:57:00,85.2,76.4,30.02,ESE,123,0.0,0.0,75,0.00,,,0.00,5,Wunderground v.1.15,2013-07-30 00:57:00,
2013-07-29 20:02:00,84.9,76.5,30.02,ESE,123,0.0,0.0,76,0.00,,,0.00,0,Wunderground v.1.15,2013-07-30 01:02:00,
2013-07-29 20:07:00,84.4,76.4,30.02,ESE,123,0.0,0.0,77,0.00,,,0.00,0,Wunderground v.1.15,2013-07-30 01:07:00,
2013-07-29 20:13:00,83.9,76.3,30.02,ESE,123,0.0,0.0,78,0.00,,,0.00,0,Wunderground v.1.15,2013-07-30 01:13:00,
2013-07-29 20:18:00,83.5,75.9,30.02,ESE,123,0.0,0.0,78,0.00,,,0.00,0,Wunderground v.1.15,2013-07-30 01:18:00,
2013-07-29 20:24:00,83.2,76.0,30.03,ESE,123,0.0,0.0,79,0.00,,,0.00,0,Wunderground v.1.15,2013-07-30 01:24:00,
2013-07-29 20:29:00,82.8,75.6,30.02,ESE,123,0.0,0.0,79,0.00,,,0.00,0,Wunderground v.1.15,2013-07-30 01:29:00,
2013-07-29 20:35:00,82.5,75.7,30.02,ESE,123,0.0,0.0,80,0.00,,,0.00,0,Wunderground v.1.15,2013-07-30 01:35:00,
2013-07-29 20:40:00,82.3,75.9,30.02,ESE,123,0.0,0.0,81,0.00,,,0.00,0,Wunderground v.1.15,2013-07-30 01:40:00,
2013-07-29 20:46:00,82.0,75.6,30.03,ESE,123,0.0,0.0,81,0.00,,,0.00,0,Wunderground v.1.15,2013-07-30 01:46:00,
2013-07-29 20:52:00,81.8,75.8,30.03,ESE,123,0.0,0.0,82,0.00,,,0.00,0,Wunderground v.1.15,2013-07-30 01:52:00,
2013-07-29 20:57:00,81.5,75.5,30.03,ESE,123,0.0,0.0,82,0.00,,,0.00,0,Wunderground v.1.15,2013-07-30 01:57:00,
2013-07-29 21:02:00,81.4,75.7,30.03,ESE,123,0.0,0.0,83,0.00,,,0.00,0,Wunderground v.1.15,2013-07-30 02:02:00,
2013-07-29 21:08:00,81.2,75.9,30.03,ESE,123,0.0,0.0,84,0.00,,,0.00,0,Wunderground v.1.15,2013-07-30 02:08:00,
2013-07-29 21:13:00,81.0,75.7,30.03,ESE,123,0.0,0.0,84,0.00,,,0.00,0,Wunderground v.1.15,2013-07-30 02:13:00,
2013-07-29 21:19:00,80.7,75.8,30.03,ESE,123,0.0,0.0,85,0.00,,,0.00,0,Wunderground v.1.15,2013-07-30 02:19:00,
2013-07-29 21:24:00,80.6,75.7,30.04,ESE,123,0.0,0.0,85,0.00,,,0.00,0,Wunderground v.1.15,2013-07-30 02:24:00,
2013-07-29 21:30:00,80.3,75.7,30.04,ESE,123,0.0,0.0,86,0.00,,,0.00,0,Wunderground v.1.15,2013-07-30 02:30:00,
2013-07-29 21:36:00,80.2,75.6,30.04,ESE,123,0.0,0.0,86,0.00,,,0.00,0,Wunderground v.1.15,2013-07-30 02:36:00,
2013-07-29 21:41:00,80.1,75.5,30.05,ESE,123,0.0,0.0,86,0.00,,,0.00,0,Wunderground v.1.15,2013-07-30 02:41:00,
2013-07-29 21:47:00,80.0,75.8,30.05,ESE,123,0.0,0.0,87,0.00,,,0.00,0,Wunderground v.1.15,2013-07-30 02:47:00,
2013-07-29 21:53:00,79.8,75.6,30.04,ESE,123,0.0,0.0,87,0.00,,,0.00,0,Wunderground v.1.15,2013-07-30 02:53:00,
2013-07-29 21:58:00,79.7,75.5,30.05,ESE,123,0.0,0.0,87,0.00,,,0.00,0,Wunderground v.1.15,2013-07-30 02:58:00,
2013-07-29 22:05:00,79.6,75.4,30.05,ESE,123,0.0,0.0,87,0.00,,,0.00,0,Wunderground v.1.15,2013-07-30 03:05:00,
2013-07-29 22:11:00,79.5,75.3,30.05,ESE,123,0.0,0.0,87,0.00,,,0.00,0,Wunderground v.1.15,2013-07-30 03:11:00,
2013-07-29 22:16:00,79.4,75.2,30.05,ESE,123,0.0,0.0,87,0.00,,,0.00,0,Wunderground v.1.15,2013-07-30 03:16:00,
2013-07-29 22:22:00,79.3,75.4,30.06,ESE,123,0.0,0.0,88,0.00,,,0.00,0,Wunderground v.1.15,2013-07-30 03:22:00,
2013-07-29 22:27:00,79.3,75.4,30.06,ESE,123,0.0,0.0,88,0.00,,,0.00,0,Wunderground v.1.15,2013-07-30 03:27:00,
2013-07-29 22:32:00,79.2,75.3,30.06,ESE,123,0.0,0.0,88,0.00,,,0.00,0,Wunderground v.1.15,2013-07-30 03:32:00,
2013-07-29 22:38:00,79.1,75.2,30.06,ESE,123,0.0,0.0,88,0.00,,,0.00,0,Wunderground v.1.15,2013-07-30 03:38:00,
2013-07-29 22:43:00,79.0,75.1,30.06,ESE,123,0.0,0.0,88,0.00,,,0.00,0,Wunderground v.1.15,2013-07-30 03:43:00,
2013-07-29 22:49:00,78.9,75.0,30.06,ESE,123,0.0,0.0,88,0.00,,,0.00,0,Wunderground v.1.15,2013-07-30 03:49:00,
2013-07-29 22:55:00,78.8,75.3,30.05,ESE,123,0.0,0.0,89,0.00,,,0.00,0,Wunderground v.1.15,2013-07-30 03:55:00,
2013-07-29 23:01:00,78.7,75.2,30.05,ESE,123,0.0,0.0,89,0.00,,,0.00,0,Wunderground v.1.15,2013-07-30 04:01:00,
2013-07-29 23:02:00,78.7,75.2,30.06,ESE,123,0.0,0.0,89,0.00,,,0.00,0,Wunderground v.1.15,2013-07-30 04:02:00,
2013-07-29 23:03:00,78.7,75.2,30.06,ESE,123,0.0,0.0,89,0.00,,,0.00,0,Wunderground v.1.15,2013-07-30 04:03:00,
2013-07-29 23:07:00,78.7,75.5,30.06,ESE,123,0.0,0.0,90,0.00,,,0.00,0,Wunderground v.1.15,2013-07-30 04:07:00,
2013-07-29 23:09:00,78.7,75.5,30.06,ESE,123,0.0,0.0,90,0.00,,,0.00,0,Wunderground v.1.15,2013-07-30 04:09:00,
2013-07-29 23:14:00,78.7,75.5,30.06,ESE,123,0.0,0.0,90,0.00,,,0.00,0,Wunderground v.1.15,2013-07-30 04:14:00,
2013-07-29 23:20:00,78.6,75.4,30.06,ESE,123,0.0,0.0,90,0.00,,,0.00,0,Wunderground v.1.15,2013-07-30 04:20:00,
2013-07-29 23:25:00,78.4,75.6,30.06,ESE,123,0.0,0.0,91,0.00,,,0.00,0,Wunderground v.1.15,2013-07-30 04:25:00,
2013-07-29 23:31:00,78.3,75.5,30.06,ESE,123,0.0,0.0,91,0.00,,,0.00,0,Wunderground v.1.15,2013-07-30 04:31:00,
2013-07-29 23:36:00,78.2,75.4,30.06,ESE,123,0.0,0.0,91,0.00,,,0.00,0,Wunderground v.1.15,2013-07-30 04:36:00,
2013-07-29 23:41:00,78.1,75.3,30.06,ESE,123,0.0,0.0,91,0.00,,,0.00,0,Wunderground v.1.15,2013-07-30 04:41:00,
2013-07-29 23:47:00,77.9,75.1,30.06,ESE,123,0.0,0.0,91,0.00,,,0.00,0,Wunderground v.1.15,2013-07-30 04:47:00,
2013-07-29 23:52:00,77.8,75.3,30.06,ESE,123,0.0,0.0,92,0.00,,,0.00,0,Wunderground v.1.15,2013-07-30 04:52:00,
2013-07-29 23:57:00,77.7,75.2,30.06,ESE,123,0.0,0.0,92,0.00,,,0.00,0,Wunderground v.1.15,2013-07-30 04:57:00,